sensor_id;sensor_type;location;lat;lon;timestamp;P1;durP1;ratioP1;P2;durP2;ratioP2
11927;SDS011;6023;47.070;15.126;2022-12-24T00:01:35;7.10;;;5.43;;
11927;SDS011;6023;47.070;15.126;2022-12-24T00:04:04;7.33;;;5.27;;
11927;SDS011;6023;47.070;15.126;2022-12-24T00:06:32;5.57;;;4.57;;
11927;SDS011;6023;47.070;15.126;2022-12-24T00:09:01;5.70;;;4.70;;
11927;SDS011;6023;47.070;15.126;2022-12-24T00:11:30;6.20;;;5.17;;
11927;SDS011;6023;47.070;15.126;2022-12-24T00:13:59;5.57;;;4.60;;
11927;SDS011;6023;47.070;15.126;2022-12-24T00:16:29;4.70;;;4.20;;
11927;SDS011;6023;47.070;15.126;2022-12-24T00:18:57;5.10;;;4.20;;
11927;SDS011;6023;47.070;15.126;2022-12-24T00:21:26;5.10;;;4.20;;
11927;SDS011;6023;47.070;15.126;2022-12-24T00:23:54;4.23;;;3.57;;
11927;SDS011;6023;47.070;15.126;2022-12-24T00:26:23;4.13;;;3.47;;
11927;SDS011;6023;47.070;15.126;2022-12-24T00:28:52;4.07;;;3.50;;
11927;SDS011;6023;47.070;15.126;2022-12-24T00:31:20;3.53;;;3.23;;
11927;SDS011;6023;47.070;15.126;2022-12-24T00:33:50;3.40;;;3.00;;
11927;SDS011;6023;47.070;15.126;2022-12-24T00:36:19;3.90;;;3.00;;
11927;SDS011;6023;47.070;15.126;2022-12-24T00:38:48;3.10;;;2.80;;
11927;SDS011;6023;47.070;15.126;2022-12-24T00:41:16;4.93;;;3.10;;
11927;SDS011;6023;47.070;15.126;2022-12-24T00:43:52;4.53;;;3.23;;
11927;SDS011;6023;47.070;15.126;2022-12-24T00:46:21;5.60;;;3.40;;
11927;SDS011;6023;47.070;15.126;2022-12-24T00:48:51;3.53;;;2.90;;
11927;SDS011;6023;47.070;15.126;2022-12-24T00:51:20;3.80;;;2.63;;
11927;SDS011;6023;47.070;15.126;2022-12-24T00:53:50;3.20;;;2.90;;
11927;SDS011;6023;47.070;15.126;2022-12-24T00:56:19;3.13;;;2.83;;
11927;SDS011;6023;47.070;15.126;2022-12-24T00:58:48;3.57;;;2.70;;
11927;SDS011;6023;47.070;15.126;2022-12-24T01:01:17;2.93;;;2.60;;
11927;SDS011;6023;47.070;15.126;2022-12-24T01:03:46;3.50;;;2.77;;
11927;SDS011;6023;47.070;15.126;2022-12-24T01:06:16;4.07;;;3.20;;
11927;SDS011;6023;47.070;15.126;2022-12-24T01:08:45;3.47;;;2.90;;
11927;SDS011;6023;47.070;15.126;2022-12-24T01:11:16;4.87;;;3.10;;
11927;SDS011;6023;47.070;15.126;2022-12-24T01:13:45;3.10;;;2.80;;
11927;SDS011;6023;47.070;15.126;2022-12-24T01:16:14;4.53;;;2.70;;
11927;SDS011;6023;47.070;15.126;2022-12-24T01:18:45;3.00;;;2.60;;
11927;SDS011;6023;47.070;15.126;2022-12-24T01:21:14;4.27;;;3.00;;
11927;SDS011;6023;47.070;15.126;2022-12-24T01:23:44;3.87;;;2.93;;
11927;SDS011;6023;47.070;15.126;2022-12-24T01:26:12;3.63;;;3.10;;
11927;SDS011;6023;47.070;15.126;2022-12-24T01:28:41;4.63;;;3.70;;
11927;SDS011;6023;47.070;15.126;2022-12-24T01:31:10;4.67;;;3.90;;
11927;SDS011;6023;47.070;15.126;2022-12-24T01:33:40;5.50;;;3.30;;
11927;SDS011;6023;47.070;15.126;2022-12-24T01:36:09;3.77;;;3.20;;
11927;SDS011;6023;47.070;15.126;2022-12-24T01:38:37;3.03;;;2.60;;
11927;SDS011;6023;47.070;15.126;2022-12-24T01:41:10;3.33;;;2.53;;
11927;SDS011;6023;47.070;15.126;2022-12-24T01:46:43;2.60;;;2.40;;
11927;SDS011;6023;47.070;15.126;2022-12-24T01:49:13;2.40;;;2.20;;
11927;SDS011;6023;47.070;15.126;2022-12-24T01:51:43;2.70;;;2.30;;
11927;SDS011;6023;47.070;15.126;2022-12-24T01:54:15;1.90;;;1.80;;
11927;SDS011;6023;47.070;15.126;2022-12-24T01:56:49;2.13;;;1.80;;
11927;SDS011;6023;47.070;15.126;2022-12-24T01:59:20;3.30;;;1.80;;
11927;SDS011;6023;47.070;15.126;2022-12-24T02:01:49;1.90;;;1.63;;
11927;SDS011;6023;47.070;15.126;2022-12-24T02:04:22;1.73;;;1.63;;
11927;SDS011;6023;47.070;15.126;2022-12-24T02:06:53;1.60;;;1.50;;
11927;SDS011;6023;47.070;15.126;2022-12-24T02:09:22;1.20;;;1.20;;
11927;SDS011;6023;47.070;15.126;2022-12-24T02:11:51;1.50;;;1.40;;
11927;SDS011;6023;47.070;15.126;2022-12-24T02:14:20;1.47;;;1.37;;
11927;SDS011;6023;47.070;15.126;2022-12-24T02:16:50;2.27;;;1.90;;
11927;SDS011;6023;47.070;15.126;2022-12-24T02:19:39;4.00;;;2.37;;
11927;SDS011;6023;47.070;15.126;2022-12-24T02:22:40;3.13;;;2.40;;
11927;SDS011;6023;47.070;15.126;2022-12-24T02:25:22;3.10;;;2.23;;
11927;SDS011;6023;47.070;15.126;2022-12-24T02:28:14;2.63;;;2.30;;
11927;SDS011;6023;47.070;15.126;2022-12-24T02:30:49;3.30;;;2.57;;
11927;SDS011;6023;47.070;15.126;2022-12-24T02:33:23;3.23;;;2.30;;
11927;SDS011;6023;47.070;15.126;2022-12-24T02:35:56;2.70;;;2.40;;
11927;SDS011;6023;47.070;15.126;2022-12-24T02:38:29;4.57;;;2.40;;
11927;SDS011;6023;47.070;15.126;2022-12-24T02:41:01;2.90;;;2.47;;
11927;SDS011;6023;47.070;15.126;2022-12-24T02:43:31;3.37;;;2.67;;
11927;SDS011;6023;47.070;15.126;2022-12-24T02:46:05;2.30;;;2.00;;
11927;SDS011;6023;47.070;15.126;2022-12-24T02:48:35;3.07;;;2.30;;
11927;SDS011;6023;47.070;15.126;2022-12-24T02:51:05;2.60;;;2.17;;
11927;SDS011;6023;47.070;15.126;2022-12-24T02:53:35;2.60;;;2.20;;
11927;SDS011;6023;47.070;15.126;2022-12-24T02:56:09;2.40;;;2.20;;
11927;SDS011;6023;47.070;15.126;2022-12-24T02:58:45;3.30;;;2.10;;
11927;SDS011;6023;47.070;15.126;2022-12-24T03:01:23;2.30;;;1.93;;
11927;SDS011;6023;47.070;15.126;2022-12-24T03:04:00;2.13;;;1.93;;
11927;SDS011;6023;47.070;15.126;2022-12-24T03:06:36;2.70;;;2.20;;
11927;SDS011;6023;47.070;15.126;2022-12-24T03:09:12;2.77;;;1.80;;
11927;SDS011;6023;47.070;15.126;2022-12-24T03:11:47;2.57;;;2.37;;
11927;SDS011;6023;47.070;15.126;2022-12-24T03:14:20;3.33;;;2.10;;
11927;SDS011;6023;47.070;15.126;2022-12-24T03:16:51;2.37;;;2.17;;
11927;SDS011;6023;47.070;15.126;2022-12-24T03:19:20;2.03;;;1.70;;
11927;SDS011;6023;47.070;15.126;2022-12-24T03:21:49;2.37;;;2.00;;
11927;SDS011;6023;47.070;15.126;2022-12-24T03:24:18;2.43;;;1.80;;
11927;SDS011;6023;47.070;15.126;2022-12-24T03:26:47;2.53;;;2.03;;
11927;SDS011;6023;47.070;15.126;2022-12-24T03:29:16;2.07;;;1.90;;
11927;SDS011;6023;47.070;15.126;2022-12-24T03:31:45;2.03;;;1.83;;
11927;SDS011;6023;47.070;15.126;2022-12-24T03:34:16;2.13;;;1.90;;
11927;SDS011;6023;47.070;15.126;2022-12-24T03:36:45;2.40;;;2.00;;
11927;SDS011;6023;47.070;15.126;2022-12-24T03:39:15;2.13;;;1.93;;
11927;SDS011;6023;47.070;15.126;2022-12-24T03:41:43;2.30;;;2.10;;
11927;SDS011;6023;47.070;15.126;2022-12-24T03:44:12;2.53;;;2.33;;
11927;SDS011;6023;47.070;15.126;2022-12-24T03:46:41;2.40;;;2.00;;
11927;SDS011;6023;47.070;15.126;2022-12-24T03:49:09;2.50;;;2.20;;
11927;SDS011;6023;47.070;15.126;2022-12-24T03:51:39;4.47;;;2.27;;
11927;SDS011;6023;47.070;15.126;2022-12-24T03:54:08;2.47;;;2.23;;
11927;SDS011;6023;47.070;15.126;2022-12-24T03:56:36;3.07;;;2.20;;
11927;SDS011;6023;47.070;15.126;2022-12-24T03:59:05;1.90;;;1.80;;
11927;SDS011;6023;47.070;15.126;2022-12-24T04:01:33;2.43;;;1.80;;
11927;SDS011;6023;47.070;15.126;2022-12-24T04:04:02;2.43;;;2.03;;
11927;SDS011;6023;47.070;15.126;2022-12-24T04:06:30;1.70;;;1.60;;
11927;SDS011;6023;47.070;15.126;2022-12-24T04:09:00;1.80;;;1.70;;
11927;SDS011;6023;47.070;15.126;2022-12-24T04:11:30;2.03;;;1.90;;
11927;SDS011;6023;47.070;15.126;2022-12-24T04:13:59;3.10;;;1.97;;
11927;SDS011;6023;47.070;15.126;2022-12-24T04:16:28;2.60;;;2.03;;
11927;SDS011;6023;47.070;15.126;2022-12-24T04:18:56;3.00;;;2.70;;
11927;SDS011;6023;47.070;15.126;2022-12-24T04:21:25;3.13;;;2.80;;
11927;SDS011;6023;47.070;15.126;2022-12-24T04:23:54;2.73;;;2.43;;
11927;SDS011;6023;47.070;15.126;2022-12-24T04:26:24;3.13;;;2.30;;
11927;SDS011;6023;47.070;15.126;2022-12-24T04:28:52;2.40;;;2.20;;
11927;SDS011;6023;47.070;15.126;2022-12-24T04:31:21;2.27;;;2.07;;
11927;SDS011;6023;47.070;15.126;2022-12-24T04:33:50;2.23;;;2.03;;
11927;SDS011;6023;47.070;15.126;2022-12-24T04:36:19;2.30;;;2.00;;
11927;SDS011;6023;47.070;15.126;2022-12-24T04:38:47;2.63;;;2.00;;
11927;SDS011;6023;47.070;15.126;2022-12-24T04:41:17;2.27;;;2.07;;
11927;SDS011;6023;47.070;15.126;2022-12-24T04:43:51;2.20;;;1.90;;
11927;SDS011;6023;47.070;15.126;2022-12-24T04:46:21;4.13;;;2.27;;
11927;SDS011;6023;47.070;15.126;2022-12-24T04:48:51;3.10;;;1.97;;
11927;SDS011;6023;47.070;15.126;2022-12-24T04:51:20;2.80;;;2.20;;
11927;SDS011;6023;47.070;15.126;2022-12-24T04:53:49;1.97;;;1.77;;
11927;SDS011;6023;47.070;15.126;2022-12-24T04:56:19;3.17;;;2.10;;
11927;SDS011;6023;47.070;15.126;2022-12-24T04:58:48;2.43;;;2.10;;
11927;SDS011;6023;47.070;15.126;2022-12-24T05:01:19;2.80;;;2.50;;
11927;SDS011;6023;47.070;15.126;2022-12-24T05:03:49;3.67;;;2.60;;
11927;SDS011;6023;47.070;15.126;2022-12-24T05:06:19;5.27;;;3.43;;
11927;SDS011;6023;47.070;15.126;2022-12-24T05:08:52;5.73;;;4.00;;
11927;SDS011;6023;47.070;15.126;2022-12-24T05:11:21;5.13;;;4.00;;
11927;SDS011;6023;47.070;15.126;2022-12-24T05:13:49;5.30;;;4.13;;
11927;SDS011;6023;47.070;15.126;2022-12-24T05:16:20;4.60;;;4.00;;
11927;SDS011;6023;47.070;15.126;2022-12-24T05:18:49;4.57;;;3.90;;
11927;SDS011;6023;47.070;15.126;2022-12-24T05:21:19;4.83;;;3.80;;
11927;SDS011;6023;47.070;15.126;2022-12-24T05:23:49;5.07;;;3.77;;
11927;SDS011;6023;47.070;15.126;2022-12-24T05:26:36;4.90;;;3.73;;
11927;SDS011;6023;47.070;15.126;2022-12-24T05:29:07;4.97;;;4.10;;
11927;SDS011;6023;47.070;15.126;2022-12-24T05:31:39;4.83;;;4.13;;
11927;SDS011;6023;47.070;15.126;2022-12-24T05:34:08;5.77;;;4.20;;
11927;SDS011;6023;47.070;15.126;2022-12-24T05:36:37;5.60;;;3.80;;
11927;SDS011;6023;47.070;15.126;2022-12-24T05:39:06;5.60;;;4.00;;
11927;SDS011;6023;47.070;15.126;2022-12-24T05:41:41;5.87;;;3.97;;
11927;SDS011;6023;47.070;15.126;2022-12-24T05:44:10;4.77;;;3.37;;
11927;SDS011;6023;47.070;15.126;2022-12-24T05:46:40;4.73;;;3.83;;
11927;SDS011;6023;47.070;15.126;2022-12-24T05:49:09;3.87;;;3.30;;
11927;SDS011;6023;47.070;15.126;2022-12-24T05:51:37;4.43;;;3.13;;
11927;SDS011;6023;47.070;15.126;2022-12-24T05:54:07;4.40;;;3.03;;
11927;SDS011;6023;47.070;15.126;2022-12-24T05:56:35;4.30;;;2.83;;
11927;SDS011;6023;47.070;15.126;2022-12-24T05:59:04;3.63;;;2.73;;
11927;SDS011;6023;47.070;15.126;2022-12-24T06:01:32;2.90;;;2.60;;
11927;SDS011;6023;47.070;15.126;2022-12-24T06:04:03;3.23;;;2.63;;
11927;SDS011;6023;47.070;15.126;2022-12-24T06:06:31;2.43;;;2.23;;
11927;SDS011;6023;47.070;15.126;2022-12-24T06:09:00;3.13;;;2.47;;
11927;SDS011;6023;47.070;15.126;2022-12-24T06:11:28;4.67;;;2.70;;
11927;SDS011;6023;47.070;15.126;2022-12-24T06:13:57;2.80;;;2.50;;
11927;SDS011;6023;47.070;15.126;2022-12-24T06:16:25;3.23;;;2.57;;
11927;SDS011;6023;47.070;15.126;2022-12-24T06:18:54;3.23;;;2.67;;
11927;SDS011;6023;47.070;15.126;2022-12-24T06:21:24;4.07;;;2.80;;
11927;SDS011;6023;47.070;15.126;2022-12-24T06:23:52;3.40;;;2.67;;
11927;SDS011;6023;47.070;15.126;2022-12-24T06:26:21;3.00;;;2.40;;
11927;SDS011;6023;47.070;15.126;2022-12-24T06:28:50;4.70;;;3.30;;
11927;SDS011;6023;47.070;15.126;2022-12-24T06:31:19;5.70;;;4.30;;
11927;SDS011;6023;47.070;15.126;2022-12-24T06:33:49;5.25;;;4.28;;
11927;SDS011;6023;47.070;15.126;2022-12-24T06:36:19;3.40;;;3.10;;
11927;SDS011;6023;47.070;15.126;2022-12-24T06:38:51;3.47;;;3.00;;
11927;SDS011;6023;47.070;15.126;2022-12-24T06:41:20;2.90;;;2.60;;
11927;SDS011;6023;47.070;15.126;2022-12-24T06:43:50;3.50;;;3.20;;
11927;SDS011;6023;47.070;15.126;2022-12-24T06:46:19;3.73;;;3.30;;
11927;SDS011;6023;47.070;15.126;2022-12-24T06:48:48;5.23;;;3.97;;
11927;SDS011;6023;47.070;15.126;2022-12-24T06:51:17;3.50;;;3.20;;
11927;SDS011;6023;47.070;15.126;2022-12-24T06:53:46;3.70;;;3.33;;
11927;SDS011;6023;47.070;15.126;2022-12-24T06:56:18;6.10;;;3.70;;
11927;SDS011;6023;47.070;15.126;2022-12-24T06:58:47;4.70;;;3.50;;
11927;SDS011;6023;47.070;15.126;2022-12-24T07:01:17;5.40;;;4.70;;
11927;SDS011;6023;47.070;15.126;2022-12-24T07:03:46;4.80;;;3.97;;
11927;SDS011;6023;47.070;15.126;2022-12-24T07:06:17;7.87;;;5.27;;
11927;SDS011;6023;47.070;15.126;2022-12-24T07:08:47;7.20;;;5.77;;
11927;SDS011;6023;47.070;15.126;2022-12-24T07:11:15;7.93;;;5.47;;
11927;SDS011;6023;47.070;15.126;2022-12-24T07:13:46;8.13;;;6.43;;
11927;SDS011;6023;47.070;15.126;2022-12-24T07:16:14;8.20;;;6.03;;
11927;SDS011;6023;47.070;15.126;2022-12-24T07:18:44;16.47;;;12.53;;
11927;SDS011;6023;47.070;15.126;2022-12-24T07:21:12;11.53;;;8.80;;
11927;SDS011;6023;47.070;15.126;2022-12-24T07:23:41;9.43;;;7.90;;
11927;SDS011;6023;47.070;15.126;2022-12-24T07:26:09;9.30;;;7.63;;
11927;SDS011;6023;47.070;15.126;2022-12-24T07:28:40;10.20;;;8.70;;
11927;SDS011;6023;47.070;15.126;2022-12-24T07:31:09;8.70;;;7.80;;
11927;SDS011;6023;47.070;15.126;2022-12-24T07:33:38;9.23;;;6.43;;
11927;SDS011;6023;47.070;15.126;2022-12-24T07:36:08;7.80;;;6.47;;
11927;SDS011;6023;47.070;15.126;2022-12-24T07:38:37;10.83;;;8.30;;
11927;SDS011;6023;47.070;15.126;2022-12-24T07:41:06;11.07;;;8.27;;
11927;SDS011;6023;47.070;15.126;2022-12-24T07:43:34;10.73;;;7.97;;
11927;SDS011;6023;47.070;15.126;2022-12-24T07:46:04;15.63;;;10.63;;
11927;SDS011;6023;47.070;15.126;2022-12-24T07:48:33;12.27;;;9.40;;
11927;SDS011;6023;47.070;15.126;2022-12-24T07:51:02;13.87;;;9.60;;
11927;SDS011;6023;47.070;15.126;2022-12-24T07:53:31;17.77;;;12.37;;
11927;SDS011;6023;47.070;15.126;2022-12-24T07:55:59;26.70;;;19.27;;
11927;SDS011;6023;47.070;15.126;2022-12-24T07:58:36;32.70;;;23.63;;
11927;SDS011;6023;47.070;15.126;2022-12-24T08:01:06;24.07;;;17.60;;
11927;SDS011;6023;47.070;15.126;2022-12-24T08:03:34;21.83;;;16.37;;
11927;SDS011;6023;47.070;15.126;2022-12-24T08:06:03;20.93;;;15.87;;
11927;SDS011;6023;47.070;15.126;2022-12-24T08:08:32;15.13;;;12.13;;
11927;SDS011;6023;47.070;15.126;2022-12-24T08:11:01;12.97;;;10.03;;
11927;SDS011;6023;47.070;15.126;2022-12-24T08:13:30;11.03;;;8.23;;
11927;SDS011;6023;47.070;15.126;2022-12-24T08:15:59;9.87;;;6.70;;
11927;SDS011;6023;47.070;15.126;2022-12-24T08:18:29;7.03;;;5.03;;
11927;SDS011;6023;47.070;15.126;2022-12-24T08:20:58;7.03;;;4.60;;
11927;SDS011;6023;47.070;15.126;2022-12-24T08:23:27;5.77;;;4.33;;
11927;SDS011;6023;47.070;15.126;2022-12-24T08:25:55;5.70;;;4.47;;
11927;SDS011;6023;47.070;15.126;2022-12-24T08:28:24;6.00;;;4.30;;
11927;SDS011;6023;47.070;15.126;2022-12-24T08:30:52;5.27;;;4.20;;
11927;SDS011;6023;47.070;15.126;2022-12-24T08:33:21;6.87;;;4.40;;
11927;SDS011;6023;47.070;15.126;2022-12-24T08:35:51;6.50;;;4.53;;
11927;SDS011;6023;47.070;15.126;2022-12-24T08:38:21;5.47;;;3.97;;
11927;SDS011;6023;47.070;15.126;2022-12-24T08:40:51;6.83;;;5.30;;
11927;SDS011;6023;47.070;15.126;2022-12-24T08:43:20;8.87;;;6.77;;
11927;SDS011;6023;47.070;15.126;2022-12-24T08:45:49;9.57;;;7.37;;
11927;SDS011;6023;47.070;15.126;2022-12-24T08:48:17;11.03;;;8.10;;
11927;SDS011;6023;47.070;15.126;2022-12-24T08:50:46;8.60;;;7.03;;
11927;SDS011;6023;47.070;15.126;2022-12-24T08:53:16;8.43;;;6.23;;
11927;SDS011;6023;47.070;15.126;2022-12-24T08:55:44;6.30;;;5.00;;
11927;SDS011;6023;47.070;15.126;2022-12-24T08:58:21;7.07;;;5.10;;
11927;SDS011;6023;47.070;15.126;2022-12-24T09:00:50;6.00;;;4.83;;
11927;SDS011;6023;47.070;15.126;2022-12-24T09:03:18;6.27;;;4.37;;
11927;SDS011;6023;47.070;15.126;2022-12-24T09:05:53;6.13;;;4.40;;
11927;SDS011;6023;47.070;15.126;2022-12-24T09:08:23;7.67;;;5.87;;
11927;SDS011;6023;47.070;15.126;2022-12-24T09:10:52;10.87;;;7.87;;
11927;SDS011;6023;47.070;15.126;2022-12-24T09:13:21;10.60;;;8.07;;
11927;SDS011;6023;47.070;15.126;2022-12-24T09:15:52;15.10;;;10.80;;
11927;SDS011;6023;47.070;15.126;2022-12-24T09:18:21;10.30;;;7.13;;
11927;SDS011;6023;47.070;15.126;2022-12-24T09:20:50;10.97;;;7.13;;
11927;SDS011;6023;47.070;15.126;2022-12-24T09:23:24;12.07;;;8.33;;
11927;SDS011;6023;47.070;15.126;2022-12-24T09:25:53;20.27;;;15.23;;
11927;SDS011;6023;47.070;15.126;2022-12-24T09:28:22;14.77;;;10.87;;
11927;SDS011;6023;47.070;15.126;2022-12-24T09:30:54;11.03;;;8.40;;
11927;SDS011;6023;47.070;15.126;2022-12-24T09:33:24;12.20;;;8.90;;
11927;SDS011;6023;47.070;15.126;2022-12-24T09:35:52;11.23;;;9.07;;
11927;SDS011;6023;47.070;15.126;2022-12-24T09:38:21;14.13;;;11.13;;
11927;SDS011;6023;47.070;15.126;2022-12-24T09:40:51;13.73;;;10.87;;
11927;SDS011;6023;47.070;15.126;2022-12-24T09:43:21;14.17;;;10.97;;
11927;SDS011;6023;47.070;15.126;2022-12-24T09:45:56;14.97;;;11.43;;
11927;SDS011;6023;47.070;15.126;2022-12-24T09:48:31;12.53;;;10.23;;
11927;SDS011;6023;47.070;15.126;2022-12-24T09:51:02;10.27;;;8.43;;
11927;SDS011;6023;47.070;15.126;2022-12-24T09:53:34;12.43;;;9.93;;
11927;SDS011;6023;47.070;15.126;2022-12-24T09:56:08;12.00;;;9.43;;
11927;SDS011;6023;47.070;15.126;2022-12-24T09:58:40;33.60;;;21.63;;
11927;SDS011;6023;47.070;15.126;2022-12-24T10:01:12;27.13;;;17.50;;
11927;SDS011;6023;47.070;15.126;2022-12-24T10:03:41;16.50;;;11.47;;
11927;SDS011;6023;47.070;15.126;2022-12-24T10:06:12;26.33;;;21.17;;
11927;SDS011;6023;47.070;15.126;2022-12-24T10:08:45;23.20;;;17.10;;
11927;SDS011;6023;47.070;15.126;2022-12-24T10:11:22;14.73;;;11.20;;
11927;SDS011;6023;47.070;15.126;2022-12-24T10:13:58;12.93;;;9.97;;
11927;SDS011;6023;47.070;15.126;2022-12-24T10:16:35;12.17;;;10.00;;
11927;SDS011;6023;47.070;15.126;2022-12-24T10:19:13;14.10;;;10.33;;
11927;SDS011;6023;47.070;15.126;2022-12-24T10:21:47;12.43;;;9.47;;
11927;SDS011;6023;47.070;15.126;2022-12-24T10:24:22;10.53;;;8.10;;
11927;SDS011;6023;47.070;15.126;2022-12-24T10:26:55;10.27;;;8.13;;
11927;SDS011;6023;47.070;15.126;2022-12-24T10:29:27;9.73;;;7.40;;
11927;SDS011;6023;47.070;15.126;2022-12-24T10:31:59;10.03;;;7.80;;
11927;SDS011;6023;47.070;15.126;2022-12-24T10:34:35;17.67;;;12.07;;
11927;SDS011;6023;47.070;15.126;2022-12-24T10:37:08;12.00;;;9.47;;
11927;SDS011;6023;47.070;15.126;2022-12-24T10:39:48;8.20;;;6.10;;
11927;SDS011;6023;47.070;15.126;2022-12-24T10:42:20;9.57;;;7.77;;
11927;SDS011;6023;47.070;15.126;2022-12-24T10:44:49;9.17;;;6.97;;
11927;SDS011;6023;47.070;15.126;2022-12-24T10:47:20;10.93;;;8.37;;
11927;SDS011;6023;47.070;15.126;2022-12-24T10:49:51;7.57;;;5.40;;
11927;SDS011;6023;47.070;15.126;2022-12-24T10:52:26;6.43;;;4.80;;
11927;SDS011;6023;47.070;15.126;2022-12-24T10:55:06;2.93;;;2.20;;
11927;SDS011;6023;47.070;15.126;2022-12-24T10:57:38;1.10;;;1.07;;
11927;SDS011;6023;47.070;15.126;2022-12-24T11:00:16;0.63;;;0.63;;
11927;SDS011;6023;47.070;15.126;2022-12-24T11:02:46;0.60;;;0.50;;
11927;SDS011;6023;47.070;15.126;2022-12-24T11:05:28;0.53;;;0.40;;
11927;SDS011;6023;47.070;15.126;2022-12-24T11:07:59;0.70;;;0.70;;
11927;SDS011;6023;47.070;15.126;2022-12-24T11:10:28;1.33;;;0.57;;
11927;SDS011;6023;47.070;15.126;2022-12-24T11:12:59;0.50;;;0.50;;
11927;SDS011;6023;47.070;15.126;2022-12-24T11:15:47;0.30;;;0.30;;
11927;SDS011;6023;47.070;15.126;2022-12-24T11:18:20;6.33;;;4.10;;
11927;SDS011;6023;47.070;15.126;2022-12-24T11:20:50;1.80;;;1.37;;
11927;SDS011;6023;47.070;15.126;2022-12-24T11:23:19;1.43;;;1.10;;
11927;SDS011;6023;47.070;15.126;2022-12-24T11:25:49;2.63;;;0.90;;
11927;SDS011;6023;47.070;15.126;2022-12-24T11:28:21;2.60;;;0.90;;
11927;SDS011;6023;47.070;15.126;2022-12-24T11:30:58;1.87;;;0.90;;
11927;SDS011;6023;47.070;15.126;2022-12-24T11:33:28;0.83;;;0.83;;
11927;SDS011;6023;47.070;15.126;2022-12-24T11:36:02;2.80;;;1.50;;
11927;SDS011;6023;47.070;15.126;2022-12-24T11:38:32;0.60;;;0.60;;
11927;SDS011;6023;47.070;15.126;2022-12-24T11:41:05;0.60;;;0.60;;
11927;SDS011;6023;47.070;15.126;2022-12-24T11:43:39;8.40;;;6.50;;
11927;SDS011;6023;47.070;15.126;2022-12-24T11:46:13;6.37;;;4.70;;
11927;SDS011;6023;47.070;15.126;2022-12-24T11:48:48;1.60;;;1.50;;
11927;SDS011;6023;47.070;15.126;2022-12-24T11:51:34;2.00;;;1.73;;
11927;SDS011;6023;47.070;15.126;2022-12-24T11:54:05;2.47;;;2.27;;
11927;SDS011;6023;47.070;15.126;2022-12-24T11:56:38;3.97;;;3.57;;
11927;SDS011;6023;47.070;15.126;2022-12-24T11:59:11;3.20;;;2.83;;
11927;SDS011;6023;47.070;15.126;2022-12-24T12:01:45;4.80;;;3.30;;
11927;SDS011;6023;47.070;15.126;2022-12-24T12:04:18;3.23;;;1.70;;
11927;SDS011;6023;47.070;15.126;2022-12-24T12:06:49;4.97;;;0.87;;
11927;SDS011;6023;47.070;15.126;2022-12-24T12:09:22;1.30;;;0.80;;
11927;SDS011;6023;47.070;15.126;2022-12-24T12:11:54;1.93;;;1.20;;
11927;SDS011;6023;47.070;15.126;2022-12-24T12:14:28;3.47;;;2.87;;
11927;SDS011;6023;47.070;15.126;2022-12-24T12:17:00;3.87;;;2.90;;
11927;SDS011;6023;47.070;15.126;2022-12-24T12:19:32;3.60;;;3.10;;
11927;SDS011;6023;47.070;15.126;2022-12-24T12:22:05;5.23;;;3.87;;
11927;SDS011;6023;47.070;15.126;2022-12-24T12:24:35;3.43;;;3.13;;
11927;SDS011;6023;47.070;15.126;2022-12-24T12:27:09;7.20;;;5.00;;
11927;SDS011;6023;47.070;15.126;2022-12-24T12:29:48;5.73;;;3.80;;
11927;SDS011;6023;47.070;15.126;2022-12-24T12:32:21;4.23;;;3.53;;
11927;SDS011;6023;47.070;15.126;2022-12-24T12:34:56;3.60;;;2.67;;
11927;SDS011;6023;47.070;15.126;2022-12-24T12:37:30;0.90;;;0.53;;
11927;SDS011;6023;47.070;15.126;2022-12-24T12:40:04;1.23;;;0.67;;
11927;SDS011;6023;47.070;15.126;2022-12-24T12:42:39;4.33;;;1.23;;
11927;SDS011;6023;47.070;15.126;2022-12-24T12:45:14;4.33;;;2.40;;
11927;SDS011;6023;47.070;15.126;2022-12-24T12:47:56;1.43;;;0.77;;
11927;SDS011;6023;47.070;15.126;2022-12-24T12:50:42;3.17;;;2.10;;
11927;SDS011;6023;47.070;15.126;2022-12-24T12:53:19;8.13;;;5.67;;
11927;SDS011;6023;47.070;15.126;2022-12-24T12:56:08;39.63;;;26.63;;
11927;SDS011;6023;47.070;15.126;2022-12-24T12:58:45;10.73;;;7.73;;
11927;SDS011;6023;47.070;15.126;2022-12-24T13:01:19;10.27;;;8.17;;
11927;SDS011;6023;47.070;15.126;2022-12-24T13:04:05;12.50;;;8.27;;
11927;SDS011;6023;47.070;15.126;2022-12-24T13:10:11;7.17;;;4.47;;
11927;SDS011;6023;47.070;15.126;2022-12-24T13:13:09;2.23;;;1.93;;
11927;SDS011;6023;47.070;15.126;2022-12-24T13:16:05;1.90;;;1.70;;
11927;SDS011;6023;47.070;15.126;2022-12-24T13:18:49;2.93;;;2.10;;
11927;SDS011;6023;47.070;15.126;2022-12-24T13:21:22;3.07;;;2.00;;
11927;SDS011;6023;47.070;15.126;2022-12-24T13:23:57;3.17;;;2.83;;
11927;SDS011;6023;47.070;15.126;2022-12-24T13:26:32;5.50;;;4.60;;
11927;SDS011;6023;47.070;15.126;2022-12-24T13:29:28;4.60;;;4.10;;
11927;SDS011;6023;47.070;15.126;2022-12-24T13:35:01;2.87;;;2.10;;
11927;SDS011;6023;47.070;15.126;2022-12-24T13:37:32;4.47;;;1.50;;
11927;SDS011;6023;47.070;15.126;2022-12-24T13:40:06;3.37;;;2.20;;
11927;SDS011;6023;47.070;15.126;2022-12-24T13:42:45;4.40;;;3.33;;
11927;SDS011;6023;47.070;15.126;2022-12-24T13:48:16;3.37;;;1.80;;
11927;SDS011;6023;47.070;15.126;2022-12-24T13:50:58;4.33;;;2.53;;
11927;SDS011;6023;47.070;15.126;2022-12-24T13:53:29;5.33;;;3.20;;
11927;SDS011;6023;47.070;15.126;2022-12-24T13:56:01;2.83;;;2.30;;
11927;SDS011;6023;47.070;15.126;2022-12-24T13:58:33;3.07;;;2.00;;
11927;SDS011;6023;47.070;15.126;2022-12-24T14:01:03;4.20;;;2.40;;
11927;SDS011;6023;47.070;15.126;2022-12-24T14:03:36;5.43;;;2.97;;
11927;SDS011;6023;47.070;15.126;2022-12-24T14:06:10;3.97;;;2.80;;
11927;SDS011;6023;47.070;15.126;2022-12-24T14:08:41;5.13;;;4.20;;
11927;SDS011;6023;47.070;15.126;2022-12-24T14:11:11;2.33;;;2.10;;
11927;SDS011;6023;47.070;15.126;2022-12-24T14:13:51;4.63;;;2.20;;
11927;SDS011;6023;47.070;15.126;2022-12-24T14:16:41;5.07;;;3.17;;
11927;SDS011;6023;47.070;15.126;2022-12-24T14:19:12;8.27;;;4.03;;
11927;SDS011;6023;47.070;15.126;2022-12-24T14:21:48;5.43;;;3.50;;
11927;SDS011;6023;47.070;15.126;2022-12-24T14:24:24;5.30;;;3.10;;
11927;SDS011;6023;47.070;15.126;2022-12-24T14:26:56;7.53;;;4.00;;
11927;SDS011;6023;47.070;15.126;2022-12-24T14:29:28;7.70;;;4.10;;
11927;SDS011;6023;47.070;15.126;2022-12-24T14:31:59;4.20;;;3.20;;
11927;SDS011;6023;47.070;15.126;2022-12-24T14:34:30;9.97;;;6.03;;
11927;SDS011;6023;47.070;15.126;2022-12-24T14:37:01;10.20;;;5.40;;
11927;SDS011;6023;47.070;15.126;2022-12-24T14:39:31;9.70;;;6.17;;
11927;SDS011;6023;47.070;15.126;2022-12-24T14:42:05;7.33;;;5.50;;
11927;SDS011;6023;47.070;15.126;2022-12-24T14:44:45;6.67;;;3.97;;
11927;SDS011;6023;47.070;15.126;2022-12-24T14:47:33;8.93;;;6.40;;
11927;SDS011;6023;47.070;15.126;2022-12-24T14:53:06;5.47;;;3.13;;
11927;SDS011;6023;47.070;15.126;2022-12-24T14:55:45;6.97;;;4.93;;
11927;SDS011;6023;47.070;15.126;2022-12-24T14:58:24;6.23;;;4.43;;
11927;SDS011;6023;47.070;15.126;2022-12-24T15:00:55;5.07;;;4.47;;
11927;SDS011;6023;47.070;15.126;2022-12-24T15:03:25;5.97;;;4.03;;
11927;SDS011;6023;47.070;15.126;2022-12-24T15:05:55;5.47;;;3.70;;
11927;SDS011;6023;47.070;15.126;2022-12-24T15:08:28;4.30;;;3.00;;
11927;SDS011;6023;47.070;15.126;2022-12-24T15:11:00;22.90;;;19.77;;
11927;SDS011;6023;47.070;15.126;2022-12-24T15:13:34;12.33;;;10.17;;
11927;SDS011;6023;47.070;15.126;2022-12-24T15:16:05;6.03;;;4.20;;
11927;SDS011;6023;47.070;15.126;2022-12-24T15:18:36;6.03;;;4.33;;
11927;SDS011;6023;47.070;15.126;2022-12-24T15:21:06;13.80;;;10.10;;
11927;SDS011;6023;47.070;15.126;2022-12-24T15:23:43;11.67;;;8.97;;
11927;SDS011;6023;47.070;15.126;2022-12-24T15:26:15;11.20;;;7.73;;